Time;durP1;ratioP1;P1;durP2;ratioP2;P2;SDS_P1;SDS_P2;PMS_P1;PMS_P2;Temp;Humidity;BMP_temperature;BMP_pressure;BME280_temperature;BME280_humidity;BME280_pressure;Samples;Min_cycle;Max_cycle;Signal;HPM_P1;HPM_P2
2022/01/18 00:01:14;;;;;;;11.95;8.18;;;27.50;85.20;;;;;;5076703;28;20048;-56
2022/01/18 00:03:41;;;;;;;9.60;8.52;;;27.50;85.10;;;;;;5067934;28;20023;-56
2022/01/18 00:06:08;;;;;;;9.73;7.75;;;27.40;84.80;;;;;;5069826;28;20241;-55
2022/01/18 00:08:34;;;;;;;13.60;8.55;;;27.40;84.90;;;;;;5066556;28;20021;-57
2022/01/18 00:11:02;;;;;;;13.75;7.95;;;27.40;85.00;;;;;;5057819;28;20029;-52
2022/01/18 00:14:09;;;;;;;11.88;7.93;;;27.40;85.20;;;;;;5060188;28;20020;-51
2022/01/18 00:18:54;;;;;;;12.97;10.27;;;27.40;85.10;;;;;;5055587;28;19904;-54
2022/01/18 00:21:29;;;;;;;12.90;10.35;;;27.30;85.40;;;;;;5056375;28;20333;-54
2022/01/18 00:23:58;;;;;;;17.02;10.25;;;27.40;85.70;;;;;;5055403;28;20025;-47
2022/01/18 00:26:29;;;;;;;13.65;9.50;;;27.40;85.70;;;;;;5054385;28;20320;-55
2022/01/18 00:29:02;;;;;;;13.25;9.27;;;27.30;85.60;;;;;;5054946;28;20088;-53
2022/01/18 00:34:22;;;;;;;11.82;9.75;;;27.30;85.60;;;;;;5072345;28;20008;-61
2022/01/18 00:39:18;;;;;;;11.70;9.75;;;27.30;86.00;;;;;;5044963;28;20348;-59
2022/01/18 00:41:47;;;;;;;11.57;10.38;;;27.30;85.80;;;;;;5074452;28;20041;-55
2022/01/18 00:44:15;;;;;;;15.57;10.68;;;27.30;85.70;;;;;;5073551;28;20032;-61
2022/01/18 00:46:42;;;;;;;12.95;10.85;;;27.30;85.80;;;;;;5081103;28;20043;-58
2022/01/18 00:49:13;;;;;;;13.60;10.63;;;27.20;85.80;;;;;;5079266;28;20075;-57
2022/01/18 00:51:45;;;;;;;11.93;10.73;;;27.20;85.90;;;;;;5074133;28;20198;-54
2022/01/18 00:54:20;;;;;;;12.30;10.32;;;27.20;86.00;;;;;;5072675;28;20213;-56
2022/01/18 00:56:52;;;;;;;10.73;9.63;;;27.20;85.90;;;;;;5072770;28;20028;-57
2022/01/18 00:59:19;;;;;;;10.75;9.43;;;27.20;85.90;;;;;;5040250;28;20051;-56
2022/01/18 01:01:46;;;;;;;13.07;10.10;;;27.20;85.90;;;;;;5037605;28;20032;-60
2022/01/18 01:04:15;;;;;;;22.55;13.38;;;27.20;86.10;;;;;;5060541;28;20078;-61
2022/01/18 01:06:43;;;;;;;16.73;11.15;;;27.20;86.00;;;;;;5046999;28;20029;-60
2022/01/18 01:09:09;;;;;;;12.55;9.63;;;27.10;85.60;;;;;;5067283;28;20066;-54
2022/01/18 01:11:39;;;;;;;13.82;9.15;;;27.10;85.40;;;;;;5073205;28;20094;-56
2022/01/18 01:14:20;;;;;;;14.52;8.50;;;27.10;85.10;;;;;;5064511;28;20190;-54
2022/01/18 01:16:55;;;;;;;11.00;8.65;;;27.10;85.00;;;;;;5038357;28;20349;-60
2022/01/18 01:31:57;;;;;;;15.70;9.48;;;27.10;84.90;;;;;;5040541;28;20032;-55
2022/01/18 01:33:56;;;;;;;13.10;9.57;;;27.00;84.80;;;;;;5047081;28;20086;-58
2022/01/18 01:36:31;;;;;;;11.50;10.30;;;26.90;84.90;;;;;;5067019;28;20032;-54
2022/01/18 01:42:05;;;;;;;13.52;10.02;;;26.90;84.80;;;;;;5045803;28;20053;-56
2022/01/18 01:44:46;;;;;;;11.45;10.00;;;26.90;84.80;;;;;;5074697;28;20035;-52
2022/01/18 01:47:19;;;;;;;13.25;10.00;;;26.90;84.70;;;;;;5049960;28;20452;-55
2022/01/18 01:49:49;;;;;;;14.00;10.23;;;26.90;84.70;;;;;;5075496;28;20028;-54
2022/01/18 01:52:20;;;;;;;16.70;10.38;;;26.90;84.60;;;;;;5074782;28;20021;-57
2022/01/18 01:54:49;;;;;;;10.95;9.80;;;26.90;84.70;;;;;;5072815;28;20045;-59
2022/01/18 01:57:15;;;;;;;12.02;10.43;;;26.80;84.40;;;;;;5074575;28;20297;-56
2022/01/18 01:59:42;;;;;;;11.68;10.15;;;26.90;84.40;;;;;;5074433;28;20026;-56
2022/01/18 02:02:09;;;;;;;14.98;10.15;;;26.90;84.30;;;;;;5050605;28;20036;-57
2022/01/18 02:04:36;;;;;;;14.00;10.35;;;26.90;84.10;;;;;;5073777;28;20213;-57
2022/01/18 02:07:04;;;;;;;11.07;10.00;;;26.80;84.10;;;;;;5073752;28;20033;-52
2022/01/18 02:09:32;;;;;;;15.48;9.82;;;26.80;84.10;;;;;;5070736;28;20021;-55
2022/01/18 02:12:01;;;;;;;10.93;9.80;;;26.80;84.20;;;;;;5074081;28;20352;-54
2022/01/18 02:14:32;;;;;;;12.20;10.23;;;26.80;84.30;;;;;;5038745;28;20322;-57
2022/01/18 02:22:31;;;;;;;14.02;11.52;;;26.70;83.90;;;;;;5057454;28;20340;-54
2022/01/18 02:24:57;;;;;;;12.65;11.20;;;26.70;84.00;;;;;;5070443;28;20028;-59
2022/01/18 02:27:24;;;;;;;15.20;10.27;;;26.70;83.90;;;;;;5049546;28;20051;-54
2022/01/18 02:29:51;;;;;;;13.95;9.60;;;26.70;83.80;;;;;;5071245;28;20029;-54
2022/01/18 02:32:17;;;;;;;14.23;10.30;;;26.70;83.70;;;;;;5049931;28;20020;-55
2022/01/18 02:34:44;;;;;;;12.30;9.60;;;26.70;83.50;;;;;;5071582;28;20034;-54
2022/01/18 02:37:14;;;;;;;12.05;9.32;;;26.70;83.50;;;;;;5065075;28;20016;-54
2022/01/18 02:39:42;;;;;;;10.65;9.27;;;26.70;83.60;;;;;;5066966;28;20016;-53
2022/01/18 02:42:11;;;;;;;12.02;10.25;;;26.60;84.10;;;;;;5068785;28;20029;-58
2022/01/18 02:44:37;;;;;;;11.00;10.00;;;26.60;84.30;;;;;;5067825;28;20059;-54
2022/01/18 02:47:05;;;;;;;12.23;11.02;;;26.60;84.40;;;;;;5070888;28;20398;-55
2022/01/18 02:49:33;;;;;;;12.32;10.98;;;26.60;84.70;;;;;;5069660;28;20058;-54
2022/01/18 02:52:00;;;;;;;15.00;11.60;;;26.60;84.80;;;;;;5073856;28;20021;-60
2022/01/18 02:54:27;;;;;;;12.32;11.05;;;26.60;84.80;;;;;;5072190;28;20009;-54
2022/01/18 02:57:00;;;;;;;14.93;11.60;;;26.60;84.90;;;;;;5071442;28;20079;-55
2022/01/18 02:59:47;;;;;;;;;;;26.60;84.80;;;;;;5068807;28;20083;-54
2022/01/18 03:05:15;;;;;;;13.40;11.43;;;26.50;85.20;;;;;;5051399;28;20020;-56
2022/01/18 03:07:43;;;;;;;12.50;11.13;;;26.50;85.20;;;;;;5053494;28;20035;-55
2022/01/18 03:10:11;;;;;;;13.73;11.10;;;26.50;85.40;;;;;;5052287;28;20029;-54
2022/01/18 03:12:38;;;;;;;12.45;11.23;;;26.50;85.40;;;;;;5076596;28;20293;-55
2022/01/18 03:15:06;;;;;;;12.65;10.88;;;26.50;85.40;;;;;;5068480;28;20024;-53
2022/01/18 03:17:33;;;;;;;14.48;11.98;;;26.50;85.50;;;;;;5073451;28;20021;-55
2022/01/18 03:20:00;;;;;;;12.88;11.07;;;26.50;85.70;;;;;;5071080;28;20052;-57
2022/01/18 03:22:28;;;;;;;13.40;11.55;;;26.50;85.90;;;;;;5059427;28;20032;-56
2022/01/18 03:30:10;;;;;;;13.55;10.65;;;26.50;85.80;;;;;;5047217;28;20028;-55
2022/01/18 03:32:37;;;;;;;13.70;10.73;;;26.50;85.80;;;;;;5047827;28;20059;-61
2022/01/18 03:35:07;;;;;;;12.43;11.07;;;26.50;85.60;;;;;;5046764;28;20009;-54
2022/01/18 03:37:34;;;;;;;11.82;10.57;;;26.50;85.60;;;;;;5046970;28;20021;-55
2022/01/18 03:40:01;;;;;;;11.52;10.32;;;26.50;85.50;;;;;;5046078;28;20017;-56
2022/01/18 03:42:45;;;;;;;12.85;10.75;;;26.50;85.40;;;;;;5045844;28;20029;-57
2022/01/18 03:45:17;;;;;;;11.77;10.57;;;26.50;85.60;;;;;;5045367;28;20025;-57
2022/01/18 03:47:45;;;;;;;14.77;10.02;;;26.60;85.50;;;;;;5045818;28;20099;-55
2022/01/18 03:50:14;;;;;;;11.93;10.68;;;26.60;85.50;;;;;;5046249;28;20156;-55
2022/01/18 03:52:42;;;;;;;11.32;10.23;;;26.60;85.30;;;;;;5047474;28;20068;-56
2022/01/18 03:55:11;;;;;;;12.43;10.13;;;26.60;85.30;;;;;;5046659;28;20031;-56
2022/01/18 03:57:38;;;;;;;12.68;10.05;;;26.60;85.10;;;;;;5047123;28;20033;-55
2022/01/18 04:00:10;;;;;;;12.65;10.40;;;26.60;85.00;;;;;;5046774;28;20326;-59
2022/01/18 04:02:37;;;;;;;13.13;11.48;;;26.60;85.00;;;;;;5047212;28;20222;-55
2022/01/18 04:05:05;;;;;;;11.27;10.15;;;26.60;85.00;;;;;;5046448;28;20025;-55
2022/01/18 04:07:31;;;;;;;11.27;10.07;;;26.60;85.00;;;;;;5047187;28;20096;-63
2022/01/18 04:09:58;;;;;;;12.30;10.35;;;26.60;85.00;;;;;;5046510;28;20018;-56
2022/01/18 04:12:25;;;;;;;11.57;10.30;;;26.60;84.90;;;;;;5046861;28;20307;-55
2022/01/18 04:14:51;;;;;;;11.95;10.63;;;26.60;84.90;;;;;;5046739;28;20028;-55
2022/01/18 04:28:11;;;;;;;10.10;9.10;;;26.60;84.70;;;;;;5046884;28;20253;-55
2022/01/18 04:30:29;;;;;;;12.15;9.68;;;26.50;84.70;;;;;;5044756;28;20083;-55
2022/01/18 04:32:55;;;;;;;10.98;9.82;;;26.60;84.70;;;;;;5046275;28;20021;-56
2022/01/18 04:35:22;;;;;;;11.95;9.77;;;26.50;84.80;;;;;;5046071;28;20310;-57
2022/01/18 04:37:49;;;;;;;11.57;10.48;;;26.50;84.80;;;;;;5046616;28;20033;-54
2022/01/18 04:40:18;;;;;;;11.90;9.95;;;26.50;84.80;;;;;;5046194;28;20013;-55
2022/01/18 04:50:40;;;;;;;11.02;10.02;;;26.50;84.90;;;;;;5045866;28;20029;-55
2022/01/18 04:53:07;;;;;;;11.52;9.93;;;26.50;85.00;;;;;;5046079;28;20045;-60
2022/01/18 04:55:35;;;;;;;11.30;9.55;;;26.50;85.00;;;;;;5045691;28;20022;-55
2022/01/18 04:58:02;;;;;;;12.80;9.98;;;26.50;84.90;;;;;;5045710;28;20056;-55
2022/01/18 05:00:29;;;;;;;12.45;10.00;;;26.50;84.90;;;;;;5045671;28;20022;-55
2022/01/18 05:02:55;;;;;;;10.68;9.50;;;26.50;84.70;;;;;;5045520;28;20025;-55
2022/01/18 05:05:28;;;;;;;11.88;9.30;;;26.50;84.50;;;;;;5045663;28;20025;-54
2022/01/18 05:08:02;;;;;;;10.63;9.60;;;26.50;84.50;;;;;;5045762;28;20117;-58
2022/01/18 05:10:30;;;;;;;10.18;9.27;;;26.50;84.40;;;;;;5045311;28;20025;-59
2022/01/18 05:12:59;;;;;;;11.18;10.02;;;26.50;84.30;;;;;;5045411;28;20029;-58
2022/01/18 05:23:30;;;;;;;14.30;9.13;;;26.50;84.20;;;;;;5045422;28;20056;-58
2022/01/18 05:25:57;;;;;;;12.88;9.75;;;26.50;84.20;;;;;;5045125;28;20097;-56
2022/01/18 05:28:23;;;;;;;10.60;9.55;;;26.50;84.20;;;;;;5045320;28;20266;-56
2022/01/18 05:30:50;;;;;;;10.57;9.48;;;26.50;84.20;;;;;;5045179;28;20025;-62
2022/01/18 05:33:18;;;;;;;9.95;8.93;;;26.50;84.20;;;;;;5045079;28;20028;-63
2022/01/18 05:35:45;;;;;;;10.15;9.20;;;26.50;84.20;;;;;;5045072;28;20122;-55
2022/01/18 05:38:12;;;;;;;9.82;8.85;;;26.50;84.10;;;;;;5045231;28;20028;-55
2022/01/18 05:40:38;;;;;;;10.60;9.55;;;26.50;84.10;;;;;;5044733;28;20024;-58
2022/01/18 05:43:05;;;;;;;10.27;9.20;;;26.50;84.10;;;;;;5044902;28;20021;-59
2022/01/18 05:45:32;;;;;;;11.68;10.23;;;26.50;84.20;;;;;;5045000;28;20025;-54
2022/01/18 05:47:59;;;;;;;10.55;9.38;;;26.50;84.30;;;;;;5044584;28;20037;-56
2022/01/18 05:50:25;;;;;;;9.93;9.05;;;26.50;84.20;;;;;;5045027;28;20035;-65
2022/01/18 05:52:52;;;;;;;11.95;9.63;;;26.50;84.20;;;;;;5044824;28;20064;-58
2022/01/18 05:55:18;;;;;;;10.25;8.82;;;26.50;84.20;;;;;;5044702;28;20026;-62
2022/01/18 05:57:45;;;;;;;10.48;9.23;;;26.50;84.20;;;;;;5045061;28;20075;-55
2022/01/18 06:00:19;;;;;;;10.45;9.38;;;26.50;84.20;;;;;;5044563;28;20251;-55
2022/01/18 06:03:01;;;;;;;10.38;9.38;;;26.50;84.30;;;;;;5044851;28;20056;-55
2022/01/18 06:08:14;;;;;;;11.63;8.82;;;26.50;84.30;;;;;;5044369;28;20064;-58
2022/01/18 06:10:41;;;;;;;9.95;8.95;;;26.50;84.30;;;;;;5044316;28;20028;-54
2022/01/18 06:13:07;;;;;;;9.88;8.82;;;26.50;84.30;;;;;;5044307;28;20021;-54
2022/01/18 06:15:35;;;;;;;10.10;9.10;;;26.50;84.30;;;;;;5044037;28;20022;-54
2022/01/18 06:18:02;;;;;;;9.35;8.35;;;26.50;84.30;;;;;;5044354;28;20013;-54
2022/01/18 06:20:29;;;;;;;9.60;7.90;;;26.50;84.30;;;;;;5044210;28;20029;-58
2022/01/18 06:22:55;;;;;;;9.23;8.32;;;26.50;84.30;;;;;;5044005;28;20052;-57
2022/01/18 06:25:22;;;;;;;9.43;7.72;;;26.50;84.30;;;;;;5044333;28;20068;-58
2022/01/18 06:27:50;;;;;;;12.18;8.05;;;26.50;84.20;;;;;;5044729;28;20053;-58
2022/01/18 06:30:18;;;;;;;11.02;8.75;;;26.50;84.10;;;;;;5043853;28;20029;-54
2022/01/18 06:32:45;;;;;;;10.13;8.00;;;26.40;84.10;;;;;;5044710;28;20218;-55
2022/01/18 06:35:14;;;;;;;8.35;7.50;;;26.50;84.10;;;;;;5044166;28;20025;-60
2022/01/18 06:37:41;;;;;;;8.40;7.43;;;26.40;84.10;;;;;;5044527;28;20036;-55
2022/01/18 06:40:10;;;;;;;11.15;7.78;;;26.40;84.00;;;;;;5044232;28;20017;-57
2022/01/18 06:42:37;;;;;;;10.65;8.13;;;26.50;83.90;;;;;;5044356;28;20022;-56
2022/01/18 06:45:04;;;;;;;8.82;6.82;;;26.40;83.80;;;;;;5043935;28;20018;-56
2022/01/18 06:47:31;;;;;;;10.88;7.35;;;26.40;83.70;;;;;;5044039;28;20329;-55
2022/01/18 06:49:58;;;;;;;8.63;6.90;;;26.40;83.60;;;;;;5043804;28;20344;-56
2022/01/18 06:52:24;;;;;;;6.88;6.18;;;26.40;83.60;;;;;;5043643;28;20183;-56
2022/01/18 06:54:51;;;;;;;8.57;7.05;;;26.40;83.40;;;;;;5044332;28;20022;-56
2022/01/18 06:57:18;;;;;;;8.20;7.18;;;26.40;83.20;;;;;;5044210;28;20025;-55
2022/01/18 06:59:45;;;;;;;8.65;6.90;;;26.40;83.20;;;;;;5043932;28;20028;-59
2022/01/18 07:02:11;;;;;;;9.13;6.68;;;26.40;83.20;;;;;;5044126;28;20025;-56
2022/01/18 07:04:38;;;;;;;8.05;6.53;;;26.40;83.30;;;;;;5043964;28;20245;-56
2022/01/18 07:07:05;;;;;;;8.07;6.82;;;26.40;83.30;;;;;;5043900;28;20029;-58
2022/01/18 07:09:32;;;;;;;7.53;6.82;;;26.40;83.30;;;;;;5043620;28;20022;-60
2022/01/18 07:12:00;;;;;;;8.65;7.32;;;26.40;83.20;;;;;;5043894;28;20136;-60
2022/01/18 07:14:27;;;;;;;7.40;6.63;;;26.40;83.10;;;;;;5043522;28;20045;-55
2022/01/18 07:16:53;;;;;;;8.73;6.68;;;26.40;83.00;;;;;;5043978;28;20029;-59
2022/01/18 07:19:20;;;;;;;7.25;6.60;;;26.40;83.00;;;;;;5043572;28;20021;-56
2022/01/18 07:21:46;;;;;;;9.23;6.85;;;26.40;83.10;;;;;;5043823;28;20033;-59
2022/01/18 07:24:18;;;;;;;7.90;6.63;;;26.40;83.00;;;;;;5043596;28;20068;-56
2022/01/18 07:26:46;;;;;;;7.60;6.90;;;26.40;83.00;;;;;;5044029;28;20029;-56
2022/01/18 07:29:14;;;;;;;9.40;7.10;;;26.40;83.00;;;;;;5043315;28;20210;-62
2022/01/18 07:31:41;;;;;;;8.70;6.72;;;26.40;83.00;;;;;;5043711;28;20035;-64
2022/01/18 07:34:07;;;;;;;9.73;6.53;;;26.40;82.90;;;;;;5043460;28;20037;-62
2022/01/18 07:36:34;;;;;;;7.70;6.90;;;26.40;83.30;;;;;;5043586;28;20194;-54
2022/01/18 07:39:01;;;;;;;9.05;7.00;;;26.40;82.80;;;;;;5043525;28;20049;-56
2022/01/18 07:41:27;;;;;;;8.00;6.75;;;26.40;82.70;;;;;;5043620;28;20044;-57
2022/01/18 07:43:54;;;;;;;7.25;6.50;;;26.40;82.70;;;;;;5043226;28;20075;-56
2022/01/18 07:46:21;;;;;;;7.63;6.93;;;26.40;82.70;;;;;;5043440;28;20037;-58
2022/01/18 07:48:47;;;;;;;7.57;6.80;;;26.40;82.70;;;;;;5043444;28;20067;-61
2022/01/18 07:51:15;;;;;;;9.57;6.75;;;26.40;82.70;;;;;;5043453;28;20035;-55
2022/01/18 07:53:42;;;;;;;7.43;6.60;;;26.40;82.70;;;;;;5043344;28;20029;-55
2022/01/18 07:56:09;;;;;;;8.57;7.15;;;26.30;82.60;;;;;;5043314;28;20029;-55
2022/01/18 07:58:36;;;;;;;7.60;6.90;;;26.30;82.70;;;;;;5043351;28;20364;-58
2022/01/18 08:01:02;;;;;;;8.68;6.80;;;26.30;82.60;;;;;;5043082;28;20096;-59
2022/01/18 08:03:29;;;;;;;7.30;6.60;;;26.40;82.60;;;;;;5043187;28;20018;-59
2022/01/18 08:05:57;;;;;;;7.95;7.15;;;26.30;82.60;;;;;;5045400;28;20194;-56
2022/01/18 08:08:25;;;;;;;8.80;6.80;;;26.40;82.60;;;;;;5046856;28;20032;-56
2022/01/18 08:10:52;;;;;;;8.32;6.50;;;26.30;82.60;;;;;;5046748;28;20310;-56
2022/01/18 08:13:23;;;;;;;7.15;6.45;;;26.30;82.50;;;;;;5046701;28;20020;-56
2022/01/18 08:15:58;;;;;;;7.30;6.60;;;26.30;82.40;;;;;;5046598;28;20029;-55
2022/01/18 08:18:24;;;;;;;6.82;6.13;;;26.30;82.50;;;;;;5046675;28;20028;-62
2022/01/18 08:20:51;;;;;;;7.78;6.30;;;26.40;82.50;;;;;;5046628;28;20357;-56
2022/01/18 08:23:18;;;;;;;8.20;6.57;;;26.30;82.30;;;;;;5046348;28;20044;-56
2022/01/18 08:25:44;;;;;;;6.75;6.10;;;26.30;82.40;;;;;;5046427;28;20249;-63
2022/01/18 08:28:11;;;;;;;7.68;6.40;;;26.30;82.30;;;;;;5046363;28;20022;-62
2022/01/18 08:30:37;;;;;;;7.07;6.38;;;26.30;82.20;;;;;;5046239;28;20051;-57
2022/01/18 08:33:04;;;;;;;7.40;6.70;;;26.30;82.20;;;;;;5046273;28;20076;-56
2022/01/18 08:35:31;;;;;;;11.20;6.72;;;26.30;82.20;;;;;;5046083;28;20092;-56
2022/01/18 08:37:58;;;;;;;7.82;6.60;;;26.30;82.10;;;;;;5046197;28;20213;-61
2022/01/18 08:40:24;;;;;;;7.90;6.60;;;26.30;82.10;;;;;;5046304;28;20017;-55
2022/01/18 08:42:51;;;;;;;7.65;6.85;;;26.30;82.00;;;;;;5045939;28;20043;-55
2022/01/18 08:45:18;;;;;;;7.15;6.45;;;26.30;82.10;;;;;;5046012;28;20029;-55
2022/01/18 08:47:44;;;;;;;7.32;6.22;;;26.30;82.10;;;;;;5045711;28;20338;-57
2022/01/18 08:50:11;;;;;;;7.65;6.43;;;26.30;82.20;;;;;;5045781;28;20032;-54
2022/01/18 08:52:38;;;;;;;8.02;6.38;;;26.30;82.20;;;;;;5046410;28;20025;-55
2022/01/18 08:55:05;;;;;;;10.07;6.65;;;26.30;82.20;;;;;;5045846;28;20041;-61
2022/01/18 08:57:32;;;;;;;8.82;6.95;;;26.30;82.20;;;;;;5046150;28;20032;-55
2022/01/18 08:59:58;;;;;;;6.32;5.72;;;26.30;82.20;;;;;;5045916;28;20060;-56
2022/01/18 09:02:25;;;;;;;7.38;5.95;;;26.30;82.10;;;;;;5046191;28;20029;-56
2022/01/18 09:04:51;;;;;;;6.82;6.13;;;26.30;82.10;;;;;;5045630;28;20306;-63
2022/01/18 09:07:20;;;;;;;7.55;6.25;;;26.30;82.60;;;;;;5046075;28;20040;-59
2022/01/18 09:09:49;;;;;;;7.57;6.50;;;26.30;82.00;;;;;;5045375;28;20030;-57
2022/01/18 09:12:17;;;;;;;7.65;6.00;;;26.30;82.00;;;;;;5045652;28;20307;-55
2022/01/18 09:14:44;;;;;;;6.78;6.10;;;26.30;82.00;;;;;;5045513;28;20068;-55
2022/01/18 09:17:10;;;;;;;6.80;5.78;;;26.30;81.90;;;;;;5045401;28;20051;-55
2022/01/18 09:19:37;;;;;;;7.50;6.22;;;26.30;81.90;;;;;;5045297;28;20067;-55
2022/01/18 09:22:04;;;;;;;8.82;5.80;;;26.30;81.80;;;;;;5045623;28;20030;-56
2022/01/18 09:24:31;;;;;;;7.88;6.43;;;26.30;81.70;;;;;;5045203;28;20048;-60
2022/01/18 09:26:59;;;;;;;7.50;5.70;;;26.30;81.80;;;;;;5045364;28;20025;-55
2022/01/18 09:29:26;;;;;;;6.72;5.75;;;26.30;81.70;;;;;;5045081;28;20075;-55
2022/01/18 09:31:53;;;;;;;7.00;6.30;;;26.30;81.60;;;;;;5045247;28;20029;-58
2022/01/18 09:34:20;;;;;;;6.32;5.72;;;26.30;81.70;;;;;;5047645;28;20030;-58
2022/01/18 09:36:46;;;;;;;6.72;5.50;;;26.30;81.60;;;;;;5082440;28;20091;-59
2022/01/18 09:39:13;;;;;;;7.65;6.50;;;26.30;81.60;;;;;;5085023;28;20050;-62
2022/01/18 09:41:46;;;;;;;8.57;5.97;;;26.30;81.60;;;;;;5085147;28;20035;-56
2022/01/18 09:44:13;;;;;;;7.13;6.15;;;26.30;81.60;;;;;;5085116;28;20024;-59
2022/01/18 09:46:39;;;;;;;8.63;6.30;;;26.30;81.60;;;;;;5084828;28;20048;-58
2022/01/18 09:49:06;;;;;;;6.47;5.72;;;26.30;81.70;;;;;;5085139;28;20194;-59
2022/01/18 09:51:33;;;;;;;7.70;5.70;;;26.30;81.80;;;;;;5085530;28;20024;-62
2022/01/18 09:54:00;;;;;;;6.68;5.57;;;26.30;81.80;;;;;;5067268;28;20301;-57
2022/01/18 09:56:26;;;;;;;8.30;6.03;;;26.30;81.70;;;;;;5084901;28;20032;-59
2022/01/18 09:58:53;;;;;;;7.13;5.53;;;26.30;81.70;;;;;;5085054;28;20269;-56
2022/01/18 10:01:20;;;;;;;7.35;5.72;;;26.30;81.70;;;;;;5085192;28;20032;-56
2022/01/18 10:03:47;;;;;;;6.95;5.60;;;26.30;81.60;;;;;;5084680;28;20016;-55
2022/01/18 10:06:17;;;;;;;6.13;5.53;;;26.30;81.40;;;;;;5084626;28;20032;-56
2022/01/18 10:08:48;;;;;;;6.03;5.43;;;26.30;81.40;;;;;;5084294;28;20328;-57
2022/01/18 10:11:17;;;;;;;6.75;5.45;;;26.30;81.30;;;;;;5084628;28;20023;-59
2022/01/18 10:13:49;;;;;;;6.03;5.40;;;26.30;81.20;;;;;;5084751;28;20358;-61
2022/01/18 10:16:22;;;;;;;7.32;5.38;;;26.30;81.50;;;;;;5084788;28;20055;-61
2022/01/18 10:18:56;;;;;;;7.65;5.90;;;26.30;81.00;;;;;;5084441;28;20087;-55
2022/01/18 10:21:31;;;;;;;6.93;5.68;;;26.30;81.00;;;;;;5084836;28;20024;-58
2022/01/18 10:24:15;;;;;;;6.65;5.53;;;26.30;80.90;;;;;;5084007;28;20090;-55
2022/01/18 10:26:43;;;;;;;9.05;5.88;;;26.30;81.00;;;;;;5084402;28;20024;-61
2022/01/18 10:29:12;;;;;;;6.03;5.00;;;26.30;80.90;;;;;;5083622;28;20028;-56
2022/01/18 10:31:55;;;;;;;6.47;5.47;;;26.30;80.90;;;;;;5084493;28;20024;-59
2022/01/18 10:35:09;;;;;;;6.32;5.13;;;26.20;80.90;;;;;;5084070;28;20022;-57
2022/01/18 10:37:17;;;;;;;7.55;5.60;;;26.30;80.90;;;;;;5070820;28;20345;-55
2022/01/18 10:39:48;;;;;;;6.20;5.55;;;26.30;81.00;;;;;;5083886;28;20035;-55
2022/01/18 10:42:19;;;;;;;6.32;5.43;;;26.20;81.00;;;;;;5084579;28;20024;-55
2022/01/18 10:44:59;;;;;;;7.38;5.38;;;26.30;80.90;;;;;;5083775;28;20087;-58
2022/01/18 10:47:26;;;;;;;8.57;5.50;;;26.30;80.90;;;;;;5083768;28;20040;-56
2022/01/18 10:49:53;;;;;;;7.18;5.35;;;26.30;80.90;;;;;;5084047;28;20078;-56
2022/01/18 10:52:24;;;;;;;7.38;5.80;;;26.30;80.90;;;;;;5084096;28;20028;-55
2022/01/18 10:54:52;;;;;;;7.38;5.07;;;26.30;81.00;;;;;;5084028;28;20313;-56
2022/01/18 10:57:32;;;;;;;6.82;5.75;;;26.30;81.00;;;;;;5084497;28;20244;-58
2022/01/18 11:00:09;;;;;;;7.03;5.72;;;26.30;81.00;;;;;;5083689;28;20344;-55
2022/01/18 11:02:43;;;;;;;6.30;5.40;;;26.30;81.20;;;;;;5084309;28;20293;-59
2022/01/18 11:05:14;;;;;;;9.32;5.70;;;26.30;81.20;;;;;;5080529;28;20075;-55
2022/01/18 11:07:42;;;;;;;9.32;5.80;;;26.30;81.30;;;;;;5083964;28;20028;-55
2022/01/18 11:10:09;;;;;;;7.63;5.85;;;26.30;81.40;;;;;;5083449;28;20031;-55
2022/01/18 11:12:52;;;;;;;6.70;5.63;;;26.30;81.40;;;;;;5084305;28;20044;-56
2022/01/18 11:15:21;;;;;;;9.38;6.00;;;26.30;81.40;;;;;;5083891;28;20257;-59
2022/01/18 11:17:55;;;;;;;7.80;5.70;;;26.30;81.40;;;;;;5083442;28;20029;-56
2022/01/18 11:20:22;;;;;;;7.22;5.78;;;26.30;81.40;;;;;;5083840;28;20024;-55
2022/01/18 11:22:50;;;;;;;14.20;6.13;;;26.30;81.50;;;;;;5084066;28;20028;-60
2022/01/18 11:25:18;;;;;;;9.50;6.43;;;26.30;81.60;;;;;;5083736;28;20020;-56
2022/01/18 11:27:49;;;;;;;10.77;6.18;;;26.20;81.60;;;;;;5084044;28;20051;-58
2022/01/18 11:30:19;;;;;;;9.23;5.93;;;26.30;81.80;;;;;;5083072;28;20221;-56
2022/01/18 11:32:46;;;;;;;12.02;7.00;;;26.20;81.70;;;;;;5084680;28;20083;-61
2022/01/18 11:35:25;;;;;;;12.38;7.15;;;26.30;81.80;;;;;;5084341;28;20311;-58
2022/01/18 11:38:02;;;;;;;8.68;6.53;;;26.30;81.80;;;;;;5084038;28;20028;-59
2022/01/18 11:40:45;;;;;;;12.82;6.78;;;26.30;81.90;;;;;;5087520;28;20309;-56
2022/01/18 11:43:12;;;;;;;9.77;7.03;;;26.30;81.90;;;;;;5087978;28;20297;-60
2022/01/18 11:45:42;;;;;;;13.93;6.32;;;26.30;82.50;;;;;;5088042;28;20025;-59
2022/01/18 11:48:14;;;;;;;8.80;6.63;;;26.30;82.00;;;;;;5087785;28;20146;-60
2022/01/18 11:51:01;;;;;;;12.23;6.50;;;26.30;82.00;;;;;;5087410;28;20176;-63
2022/01/18 11:53:45;;;;;;;9.68;7.18;;;26.30;82.00;;;;;;5087360;28;20017;-60
2022/01/18 11:56:31;;;;;;;11.40;7.75;;;26.30;82.00;;;;;;5087886;28;20024;-61
2022/01/18 11:59:21;;;;;;;10.15;7.43;;;26.30;82.00;;;;;;5087688;28;20024;-58
2022/01/18 12:01:56;;;;;;;10.38;7.05;;;26.30;82.10;;;;;;5087172;28;20032;-60
2022/01/18 12:04:54;;;;;;;10.35;7.70;;;26.20;82.00;;;;;;5087508;28;20020;-59
2022/01/18 12:07:39;;;;;;;10.40;7.10;;;26.30;82.10;;;;;;5087593;28;20047;-59
2022/01/18 12:10:29;;;;;;;11.38;7.75;;;26.20;82.10;;;;;;5086653;28;20024;-58
2022/01/18 12:12:58;;;;;;;8.15;7.35;;;26.30;82.20;;;;;;5087427;28;20025;-61
2022/01/18 12:15:26;;;;;;;9.18;7.32;;;26.30;82.20;;;;;;5087078;28;20059;-58
2022/01/18 12:17:59;;;;;;;10.82;7.45;;;26.30;82.30;;;;;;5086931;28;20248;-59
2022/01/18 12:20:38;;;;;;;9.10;7.20;;;26.30;82.50;;;;;;5087152;28;20021;-60
2022/01/18 12:23:20;;;;;;;9.93;7.60;;;26.30;82.50;;;;;;5087047;28;20062;-58
2022/01/18 12:29:18;;;;;;;9.48;7.30;;;26.30;82.60;;;;;;5086333;28;20012;-60
2022/01/18 12:37:23;;;;;;;11.35;7.93;;;26.30;82.90;;;;;;5086587;28;20101;-60
2022/01/18 12:45:12;;;;;;;40.55;11.70;;;26.30;83.00;;;;;;5045107;28;20024;-59
2022/01/18 12:47:42;;;;;;;46.47;13.35;;;26.30;83.00;;;;;;5086023;28;20032;-60
2022/01/18 12:50:12;;;;;;;47.35;12.75;;;26.30;83.20;;;;;;5085477;28;20348;-59
2022/01/18 12:53:00;;;;;;;52.22;12.48;;;26.40;83.20;;;;;;5086850;28;20204;-57
2022/01/18 12:55:47;;;;;;;41.03;12.38;;;26.40;83.30;;;;;;5085983;28;20047;-59
2022/01/18 12:58:35;;;;;;;36.60;11.57;;;26.40;83.40;;;;;;5086550;28;20204;-58
2022/01/18 13:01:04;;;;;;;33.83;11.40;;;26.40;83.50;;;;;;5086330;28;20248;-59
2022/01/18 13:03:42;;;;;;;28.27;10.93;;;26.40;83.50;;;;;;5085853;28;20016;-59
2022/01/18 13:06:14;;;;;;;25.10;11.60;;;26.40;83.60;;;;;;5086003;28;20217;-57
2022/01/18 13:08:47;;;;;;;22.92;10.60;;;26.40;83.60;;;;;;5085583;28;20079;-60
2022/01/18 13:11:16;;;;;;;19.67;10.52;;;26.50;83.90;;;;;;5085733;28;20048;-58
2022/01/18 13:13:50;;;;;;;23.42;11.25;;;26.40;83.90;;;;;;5085457;28;20088;-58
2022/01/18 13:24:55;;;;;;;21.77;10.73;;;26.40;83.90;;;;;;5085908;28;20288;-59
2022/01/18 13:27:38;;;;;;;14.23;9.98;;;26.50;83.80;;;;;;5085466;28;20032;-60
2022/01/18 13:30:20;;;;;;;17.73;9.32;;;26.50;83.70;;;;;;5085429;28;20034;-60
2022/01/18 13:32:49;;;;;;;19.40;12.65;;;26.50;83.60;;;;;;5086021;28;20025;-59
2022/01/18 13:35:24;;;;;;;26.52;16.38;;;26.60;83.70;;;;;;5085433;28;20047;-59
2022/01/18 13:37:55;;;;;;;26.45;19.05;;;26.60;83.70;;;;;;5085716;28;20321;-59
2022/01/18 13:40:22;;;;;;;32.30;24.48;;;26.60;83.60;;;;;;5085562;28;20031;-59
2022/01/18 13:42:53;;;;;;;33.38;24.27;;;26.60;83.50;;;;;;5085707;28;20055;-56
2022/01/18 13:45:26;;;;;;;41.35;31.17;;;26.60;83.50;;;;;;5085448;28;20185;-59
2022/01/18 13:48:00;;;;;;;44.65;33.22;;;26.60;83.40;;;;;;5064130;28;20119;-58
2022/01/18 13:50:52;;;;;;;46.47;31.90;;;26.60;83.50;;;;;;5065211;28;20340;-57
2022/01/18 13:53:33;;;;;;;41.38;30.85;;;26.60;83.60;;;;;;5059846;28;20082;-59
2022/01/18 13:56:13;;;;;;;42.63;29.30;;;26.60;83.70;;;;;;5065648;28;20084;-58
2022/01/18 13:58:43;;;;;;;60.88;29.33;;;26.60;83.60;;;;;;5065588;28;20020;-59
2022/01/18 14:01:28;;;;;;;50.00;26.83;;;26.60;83.70;;;;;;5065222;28;20044;-60
2022/01/18 14:03:56;;;;;;;35.75;21.40;;;26.60;83.70;;;;;;5065176;28;20333;-58
2022/01/18 14:06:34;;;;;;;30.77;19.02;;;26.70;83.80;;;;;;5065415;28;20092;-56
2022/01/18 14:09:01;;;;;;;33.10;20.83;;;26.70;83.80;;;;;;5064495;28;20025;-55
2022/01/18 14:11:31;;;;;;;31.13;19.48;;;26.70;83.80;;;;;;5064851;28;20112;-59
2022/01/18 14:13:58;;;;;;;28.63;19.08;;;26.70;83.90;;;;;;5064504;28;20024;-59
2022/01/18 14:16:29;;;;;;;26.27;16.55;;;26.70;83.90;;;;;;5064687;28;20021;-60
2022/01/18 14:19:07;;;;;;;25.33;17.37;;;26.80;83.90;;;;;;5064965;28;20037;-59
2022/01/18 14:21:36;;;;;;;22.90;16.67;;;26.80;83.80;;;;;;5064930;28;20194;-56